sensor_id;sensor_type;location;lat;lon;timestamp;pressure;altitude;pressure_sealevel;temperature;humidity
71559;BME280;59382;43.852;25.952;2023-05-14T00:00:10;101905.13;;;16.01;44.55
71559;BME280;59382;43.852;25.952;2023-05-14T00:02:36;101886.09;;;15.94;44.40
71559;BME280;59382;43.852;25.952;2023-05-14T00:05:02;101879.59;;;15.95;44.25
71559;BME280;59382;43.852;25.952;2023-05-14T00:07:28;101900.25;;;16.09;44.44
71559;BME280;59382;43.852;25.952;2023-05-14T00:09:58;101893.34;;;16.07;44.46
71559;BME280;59382;43.852;25.952;2023-05-14T00:12:24;101883.94;;;16.03;44.41
71559;BME280;59382;43.852;25.952;2023-05-14T00:14:51;101878.13;;;15.99;44.38
71559;BME280;59382;43.852;25.952;2023-05-14T00:17:17;101908.81;;;16.13;44.09
71559;BME280;59382;43.852;25.952;2023-05-14T00:19:42;101894.81;;;16.09;44.30
71559;BME280;59382;43.852;25.952;2023-05-14T00:22:08;101878.94;;;16.00;44.39
71559;BME280;59382;43.852;25.952;2023-05-14T00:24:34;101873.09;;;15.96;44.31
71559;BME280;59382;43.852;25.952;2023-05-14T00:27:00;101877.28;;;15.92;44.32
71559;BME280;59382;43.852;25.952;2023-05-14T00:29:25;101882.94;;;15.97;44.23
71559;BME280;59382;43.852;25.952;2023-05-14T00:31:51;101867.75;;;15.83;44.39
71559;BME280;59382;43.852;25.952;2023-05-14T00:34:17;101872.34;;;15.83;44.50
71559;BME280;59382;43.852;25.952;2023-05-14T00:36:43;101891.97;;;15.91;44.50
71559;BME280;59382;43.852;25.952;2023-05-14T00:39:08;101870.72;;;15.75;44.33
71559;BME280;59382;43.852;25.952;2023-05-14T00:41:34;101892.25;;;15.83;44.40
71559;BME280;59382;43.852;25.952;2023-05-14T00:43:59;101885.97;;;15.76;44.57
71559;BME280;59382;43.852;25.952;2023-05-14T00:46:26;101867.78;;;15.70;44.57
71559;BME280;59382;43.852;25.952;2023-05-14T00:48:52;101881.78;;;15.80;44.52
71559;BME280;59382;43.852;25.952;2023-05-14T00:51:17;101874.88;;;15.77;44.75
71559;BME280;59382;43.852;25.952;2023-05-14T00:53:45;101856.47;;;15.73;44.67
71559;BME280;59382;43.852;25.952;2023-05-14T00:56:11;101870.69;;;15.82;44.64
71559;BME280;59382;43.852;25.952;2023-05-14T00:58:37;101849.56;;;15.77;44.70
71559;BME280;59382;43.852;25.952;2023-05-14T01:01:02;101865.19;;;15.88;44.56
71559;BME280;59382;43.852;25.952;2023-05-14T01:03:29;101858.94;;;15.81;44.49
71559;BME280;59382;43.852;25.952;2023-05-14T01:06:14;101870.69;;;15.82;44.63
71559;BME280;59382;43.852;25.952;2023-05-14T01:11:56;101857.78;;;15.64;44.56
71559;BME280;59382;43.852;25.952;2023-05-14T01:14:26;101867.66;;;15.58;44.62
71559;BME280;59382;43.852;25.952;2023-05-14T01:16:57;101876.59;;;15.65;44.78
71559;BME280;59382;43.852;25.952;2023-05-14T01:19:43;101877.88;;;15.63;44.82
71559;BME280;59382;43.852;25.952;2023-05-14T01:22:10;101881.03;;;15.60;44.79
71559;BME280;59382;43.852;25.952;2023-05-14T01:24:36;101861.00;;;15.48;44.72
71559;BME280;59382;43.852;25.952;2023-05-14T01:29:56;101870.22;;;15.47;44.93
71559;BME280;59382;43.852;25.952;2023-05-14T01:32:24;101868.94;;;15.43;45.09
71559;BME280;59382;43.852;25.952;2023-05-14T01:34:50;101858.97;;;15.37;45.22
71559;BME280;59382;43.852;25.952;2023-05-14T01:37:16;101870.44;;;15.39;45.76
71559;BME280;59382;43.852;25.952;2023-05-14T01:39:43;101853.72;;;15.29;45.61
71559;BME280;59382;43.852;25.952;2023-05-14T01:42:09;101874.63;;;15.35;45.71
71559;BME280;59382;43.852;25.952;2023-05-14T01:44:35;101865.44;;;15.23;45.68
71559;BME280;59382;43.852;25.952;2023-05-14T01:47:00;101865.00;;;15.32;45.75
71559;BME280;59382;43.852;25.952;2023-05-14T01:49:26;101854.56;;;15.29;45.63
71559;BME280;59382;43.852;25.952;2023-05-14T01:51:52;101872.75;;;15.35;45.48
71559;BME280;59382;43.852;25.952;2023-05-14T01:54:17;101862.50;;;15.31;45.66
71559;BME280;59382;43.852;25.952;2023-05-14T01:56:43;101856.63;;;15.34;45.60
71559;BME280;59382;43.852;25.952;2023-05-14T01:59:08;101865.41;;;15.36;45.64
71559;BME280;59382;43.852;25.952;2023-05-14T02:01:34;101864.16;;;15.32;45.45
71559;BME280;59382;43.852;25.952;2023-05-14T02:03:59;101867.13;;;15.37;45.33
71559;BME280;59382;43.852;25.952;2023-05-14T02:06:25;101867.13;;;15.37;45.44
71559;BME280;59382;43.852;25.952;2023-05-14T02:08:51;101868.78;;;15.38;45.50
71559;BME280;59382;43.852;25.952;2023-05-14T02:11:16;101879.59;;;15.51;45.38
71559;BME280;59382;43.852;25.952;2023-05-14T02:13:42;101869.94;;;15.55;45.26
71559;BME280;59382;43.852;25.952;2023-05-14T02:16:08;101867.00;;;15.56;45.21
71559;BME280;59382;43.852;25.952;2023-05-14T02:18:33;101867.00;;;15.56;45.31
71559;BME280;59382;43.852;25.952;2023-05-14T02:20:59;101845.09;;;15.45;44.91
71559;BME280;59382;43.852;25.952;2023-05-14T02:23:24;101854.50;;;15.49;44.95
71559;BME280;59382;43.852;25.952;2023-05-14T02:25:50;101844.66;;;15.48;45.01
71559;BME280;59382;43.852;25.952;2023-05-14T02:28:15;101843.59;;;15.49;44.99
71559;BME280;59382;43.852;25.952;2023-05-14T02:30:41;101844.88;;;15.53;44.92
71559;BME280;59382;43.852;25.952;2023-05-14T02:33:06;101844.44;;;15.56;44.99
71559;BME280;59382;43.852;25.952;2023-05-14T02:35:32;101836.09;;;15.51;44.73
71559;BME280;59382;43.852;25.952;2023-05-14T02:37:57;101849.44;;;15.59;44.64
71559;BME280;59382;43.852;25.952;2023-05-14T02:40:24;101851.09;;;15.60;44.80
71559;BME280;59382;43.852;25.952;2023-05-14T02:42:52;101846.50;;;15.60;44.57
71559;BME280;59382;43.852;25.952;2023-05-14T02:45:17;101843.81;;;15.54;44.61
71559;BME280;59382;43.852;25.952;2023-05-14T02:47:43;101854.25;;;15.57;44.58
71559;BME280;59382;43.852;25.952;2023-05-14T02:50:08;101854.91;;;15.52;44.62
71559;BME280;59382;43.852;25.952;2023-05-14T02:52:34;101844.03;;;15.46;44.50
71559;BME280;59382;43.852;25.952;2023-05-14T02:55:00;101845.97;;;15.39;44.51
71559;BME280;59382;43.852;25.952;2023-05-14T02:57:26;101857.84;;;15.51;44.73
71559;BME280;59382;43.852;25.952;2023-05-14T02:59:52;101856.19;;;15.50;44.55
71559;BME280;59382;43.852;25.952;2023-05-14T03:02:17;101853.69;;;15.42;44.42
71559;BME280;59382;43.852;25.952;2023-05-14T03:04:43;101873.31;;;15.50;44.47
71559;BME280;59382;43.852;25.952;2023-05-14T03:07:10;101847.88;;;15.38;44.27
71559;BME280;59382;43.852;25.952;2023-05-14T03:09:36;101872.94;;;15.47;44.53
71559;BME280;59382;43.852;25.952;2023-05-14T03:12:01;101866.88;;;15.45;44.59
71559;BME280;59382;43.852;25.952;2023-05-14T03:14:27;101897.81;;;15.50;44.66
71559;BME280;59382;43.852;25.952;2023-05-14T03:16:52;101864.56;;;15.42;45.32
71559;BME280;59382;43.852;25.952;2023-05-14T03:19:18;101870.81;;;15.49;45.91
71559;BME280;59382;43.852;25.952;2023-05-14T03:21:43;101876.25;;;15.49;46.42
71559;BME280;59382;43.852;25.952;2023-05-14T03:24:09;101877.13;;;15.43;46.56
71559;BME280;59382;43.852;25.952;2023-05-14T03:26:34;101841.19;;;15.28;46.97
71559;BME280;59382;43.852;25.952;2023-05-14T03:29:01;101872.53;;;15.43;47.05
71559;BME280;59382;43.852;25.952;2023-05-14T03:31:26;101868.13;;;15.42;47.24
71559;BME280;59382;43.852;25.952;2023-05-14T03:33:52;101867.94;;;15.44;47.21
71559;BME280;59382;43.852;25.952;2023-05-14T03:36:18;101865.00;;;15.39;47.06
71559;BME280;59382;43.852;25.952;2023-05-14T03:38:43;101873.59;;;15.42;46.90
71559;BME280;59382;43.852;25.952;2023-05-14T03:41:09;101881.31;;;15.39;46.92
71559;BME280;59382;43.852;25.952;2023-05-14T03:43:34;101883.44;;;15.37;46.56
71559;BME280;59382;43.852;25.952;2023-05-14T03:46:00;101878.41;;;15.34;46.54
71559;BME280;59382;43.852;25.952;2023-05-14T03:48:25;101883.44;;;15.37;46.59
71559;BME280;59382;43.852;25.952;2023-05-14T03:50:51;101876.72;;;15.33;46.29
71559;BME280;59382;43.852;25.952;2023-05-14T03:53:16;101867.53;;;15.21;46.45
71559;BME280;59382;43.852;25.952;2023-05-14T03:55:42;101875.06;;;15.25;46.30
71559;BME280;59382;43.852;25.952;2023-05-14T03:58:07;101870.69;;;15.24;45.98
71559;BME280;59382;43.852;25.952;2023-05-14T04:00:41;101885.06;;;15.31;46.07
71559;BME280;59382;43.852;25.952;2023-05-14T04:03:06;101899.09;;;15.35;45.92
71559;BME280;59382;43.852;25.952;2023-05-14T04:05:33;101897.88;;;15.31;45.97
71559;BME280;59382;43.852;25.952;2023-05-14T04:07:58;101885.53;;;15.22;45.98
71559;BME280;59382;43.852;25.952;2023-05-14T04:10:25;101896.38;;;15.28;45.85
71559;BME280;59382;43.852;25.952;2023-05-14T04:12:50;101895.16;;;15.31;45.83
71559;BME280;59382;43.852;25.952;2023-05-14T04:15:16;101886.78;;;15.26;45.87
71559;BME280;59382;43.852;25.952;2023-05-14T04:17:41;101898.06;;;15.29;45.94
71559;BME280;59382;43.852;25.952;2023-05-14T04:20:07;101897.66;;;15.32;45.87
71559;BME280;59382;43.852;25.952;2023-05-14T04:22:33;101888.66;;;15.25;45.85
71559;BME280;59382;43.852;25.952;2023-05-14T04:24:58;101892.44;;;15.31;45.96
71559;BME280;59382;43.852;25.952;2023-05-14T04:27:24;101893.44;;;15.30;46.32
71559;BME280;59382;43.852;25.952;2023-05-14T04:29:49;101896.38;;;15.28;46.10
71559;BME280;59382;43.852;25.952;2023-05-14T04:32:15;101892.63;;;15.29;46.23
71559;BME280;59382;43.852;25.952;2023-05-14T04:34:41;101889.72;;;15.31;46.24
71559;BME280;59382;43.852;25.952;2023-05-14T04:37:07;101870.03;;;15.22;46.47
71559;BME280;59382;43.852;25.952;2023-05-14T04:39:33;101880.91;;;15.35;46.69
71559;BME280;59382;43.852;25.952;2023-05-14T04:41:58;101868.38;;;15.28;46.65
71559;BME280;59382;43.852;25.952;2023-05-14T04:44:24;101867.94;;;15.31;46.82
71559;BME280;59382;43.852;25.952;2023-05-14T04:46:50;101883.19;;;15.45;46.90
71559;BME280;59382;43.852;25.952;2023-05-14T04:49:16;101882.13;;;15.46;46.92
71559;BME280;59382;43.852;25.952;2023-05-14T04:51:41;101879.59;;;15.51;46.91
71559;BME280;59382;43.852;25.952;2023-05-14T04:54:07;101874.59;;;15.48;47.23
71559;BME280;59382;43.852;25.952;2023-05-14T04:56:32;101871.44;;;15.51;47.32
71559;BME280;59382;43.852;25.952;2023-05-14T04:58:58;101875.59;;;15.53;47.26
71559;BME280;59382;43.852;25.952;2023-05-14T05:01:23;101874.16;;;15.51;47.44
71559;BME280;59382;43.852;25.952;2023-05-14T05:03:49;101883.78;;;15.53;47.68
71559;BME280;59382;43.852;25.952;2023-05-14T05:06:15;101870.66;;;15.44;47.66
71559;BME280;59382;43.852;25.952;2023-05-14T05:08:40;101859.56;;;15.39;47.64
71559;BME280;59382;43.852;25.952;2023-05-14T05:11:06;101894.63;;;15.60;47.56
71559;BME280;59382;43.852;25.952;2023-05-14T05:13:31;101890.84;;;15.61;47.86
71559;BME280;59382;43.852;25.952;2023-05-14T05:15:57;101881.22;;;15.65;47.50
71559;BME280;59382;43.852;25.952;2023-05-14T05:18:22;101896.19;;;15.87;47.64
71559;BME280;59382;43.852;25.952;2023-05-14T05:20:48;101907.03;;;15.94;47.38
71559;BME280;59382;43.852;25.952;2023-05-14T05:23:13;101897.34;;;16.04;47.40
71559;BME280;59382;43.852;25.952;2023-05-14T05:25:39;101881.63;;;16.06;47.00
71559;BME280;59382;43.852;25.952;2023-05-14T05:28:05;101894.25;;;16.25;47.11
71559;BME280;59382;43.852;25.952;2023-05-14T05:30:31;101872.88;;;16.29;47.33
71559;BME280;59382;43.852;25.952;2023-05-14T05:32:56;101885.94;;;16.51;46.95
71559;BME280;59382;43.852;25.952;2023-05-14T05:35:22;101873.03;;;16.65;46.66
71559;BME280;59382;43.852;25.952;2023-05-14T05:37:47;101870.81;;;16.80;46.58
71559;BME280;59382;43.852;25.952;2023-05-14T05:40:13;101882.13;;;17.01;46.26
71559;BME280;59382;43.852;25.952;2023-05-14T05:42:39;101872.13;;;17.13;45.97
71559;BME280;59382;43.852;25.952;2023-05-14T05:45:06;101877.44;;;17.26;45.83
71559;BME280;59382;43.852;25.952;2023-05-14T05:47:31;101866.53;;;17.26;45.67
71559;BME280;59382;43.852;25.952;2023-05-14T05:49:57;101885.81;;;17.49;45.43
71559;BME280;59382;43.852;25.952;2023-05-14T05:52:22;101892.31;;;17.67;45.27
71559;BME280;59382;43.852;25.952;2023-05-14T05:54:48;101893.94;;;17.86;44.99
71559;BME280;59382;43.852;25.952;2023-05-14T05:57:13;101879.66;;;18.02;44.80
71559;BME280;59382;43.852;25.952;2023-05-14T05:59:41;101903.41;;;18.42;44.84
71559;BME280;59382;43.852;25.952;2023-05-14T06:02:07;101905.97;;;18.67;44.71
71559;BME280;59382;43.852;25.952;2023-05-14T06:04:32;101897.31;;;18.93;44.06
71559;BME280;59382;43.852;25.952;2023-05-14T06:06:58;101911.31;;;19.19;43.93
71559;BME280;59382;43.852;25.952;2023-05-14T06:09:23;101911.84;;;19.28;43.84
71559;BME280;59382;43.852;25.952;2023-05-14T06:11:49;101913.38;;;19.35;43.53
71559;BME280;59382;43.852;25.952;2023-05-14T06:14:14;101912.75;;;19.45;43.50
71559;BME280;59382;43.852;25.952;2023-05-14T06:16:40;101927.25;;;19.57;43.39
71559;BME280;59382;43.852;25.952;2023-05-14T06:19:05;101923.91;;;19.67;42.96
71559;BME280;59382;43.852;25.952;2023-05-14T06:21:32;101917.91;;;19.81;42.80
71559;BME280;59382;43.852;25.952;2023-05-14T06:23:58;101906.00;;;19.87;42.50
71559;BME280;59382;43.852;25.952;2023-05-14T06:26:23;101916.84;;;20.10;42.22
71559;BME280;59382;43.852;25.952;2023-05-14T06:28:49;101910.13;;;20.29;42.21
71559;BME280;59382;43.852;25.952;2023-05-14T06:31:14;101903.22;;;20.43;41.92
71559;BME280;59382;43.852;25.952;2023-05-14T06:33:40;101918.38;;;20.62;41.66
71559;BME280;59382;43.852;25.952;2023-05-14T06:36:06;101913.56;;;20.69;41.75
71559;BME280;59382;43.852;25.952;2023-05-14T06:38:32;101897.66;;;20.71;41.90
71559;BME280;59382;43.852;25.952;2023-05-14T06:40:57;101908.25;;;20.79;41.65
71559;BME280;59382;43.852;25.952;2023-05-14T06:43:23;101891.19;;;20.77;41.54
71559;BME280;59382;43.852;25.952;2023-05-14T06:45:49;101901.25;;;20.88;41.62
71559;BME280;59382;43.852;25.952;2023-05-14T06:48:15;101888.69;;;20.92;41.52
71559;BME280;59382;43.852;25.952;2023-05-14T06:50:46;101891.19;;;20.94;41.62
71559;BME280;59382;43.852;25.952;2023-05-14T06:53:11;101881.53;;;20.91;41.03
71559;BME280;59382;43.852;25.952;2023-05-14T06:55:37;101878.34;;;20.94;40.01
71559;BME280;59382;43.852;25.952;2023-05-14T06:58:05;101891.69;;;21.07;38.58
71559;BME280;59382;43.852;25.952;2023-05-14T07:00:30;101878.31;;;21.11;38.06
71559;BME280;59382;43.852;25.952;2023-05-14T07:02:56;101889.25;;;21.27;37.09
71559;BME280;59382;43.852;25.952;2023-05-14T07:05:21;101870.84;;;21.28;36.13
71559;BME280;59382;43.852;25.952;2023-05-14T07:07:47;101876.50;;;21.38;35.60
71559;BME280;59382;43.852;25.952;2023-05-14T07:10:13;101893.59;;;21.45;35.09
71559;BME280;59382;43.852;25.952;2023-05-14T07:12:38;101884.00;;;21.48;34.99
71559;BME280;59382;43.852;25.952;2023-05-14T07:15:04;101876.22;;;21.61;34.86
71559;BME280;59382;43.852;25.952;2023-05-14T07:17:30;101880.03;;;21.77;34.71
71559;BME280;59382;43.852;25.952;2023-05-14T07:19:55;101867.09;;;21.77;34.59
71559;BME280;59382;43.852;25.952;2023-05-14T07:22:21;101881.59;;;21.94;34.48
71559;BME280;59382;43.852;25.952;2023-05-14T07:24:49;101876.63;;;21.91;34.36
71559;BME280;59382;43.852;25.952;2023-05-14T07:27:15;101900.06;;;21.99;34.07
71559;BME280;59382;43.852;25.952;2023-05-14T07:29:43;101890.72;;;22.00;34.03
71559;BME280;59382;43.852;25.952;2023-05-14T07:32:09;101885.22;;;22.00;33.62
71559;BME280;59382;43.852;25.952;2023-05-14T07:34:34;101891.56;;;22.00;33.73
71559;BME280;59382;43.852;25.952;2023-05-14T07:37:00;101886.69;;;22.07;33.72
71559;BME280;59382;43.852;25.952;2023-05-14T07:39:26;101884.00;;;22.12;33.51
71559;BME280;59382;43.852;25.952;2023-05-14T07:41:52;101884.59;;;22.19;33.09
71559;BME280;59382;43.852;25.952;2023-05-14T07:44:19;101884.41;;;22.26;33.14
71559;BME280;59382;43.852;25.952;2023-05-14T07:46:46;101857.47;;;22.28;32.90
71559;BME280;59382;43.852;25.952;2023-05-14T07:49:11;101858.13;;;22.40;32.53
71559;BME280;59382;43.852;25.952;2023-05-14T07:51:37;101858.88;;;22.57;32.30
71559;BME280;59382;43.852;25.952;2023-05-14T07:54:03;101848.44;;;22.64;32.03
71559;BME280;59382;43.852;25.952;2023-05-14T07:56:28;101842.50;;;22.77;31.48
71559;BME280;59382;43.852;25.952;2023-05-14T07:58:54;101828.72;;;22.72;31.46
71559;BME280;59382;43.852;25.952;2023-05-14T08:01:20;101842.75;;;22.70;30.79
71559;BME280;59382;43.852;25.952;2023-05-14T08:03:46;101841.06;;;22.69;30.53
71559;BME280;59382;43.852;25.952;2023-05-14T08:06:11;101835.34;;;22.76;30.16
71559;BME280;59382;43.852;25.952;2023-05-14T08:08:37;101872.16;;;23.11;30.11
71559;BME280;59382;43.852;25.952;2023-05-14T08:11:02;101875.59;;;23.24;30.04
71559;BME280;59382;43.852;25.952;2023-05-14T08:13:28;101866.22;;;23.25;29.72
71559;BME280;59382;43.852;25.952;2023-05-14T08:15:54;101875.63;;;23.29;30.09
71559;BME280;59382;43.852;25.952;2023-05-14T08:18:20;101865.28;;;23.14;29.45
71559;BME280;59382;43.852;25.952;2023-05-14T08:20:45;101879.41;;;23.23;29.62
71559;BME280;59382;43.852;25.952;2023-05-14T08:23:11;101871.41;;;23.21;29.32
71559;BME280;59382;43.852;25.952;2023-05-14T08:25:36;101879.72;;;23.26;29.28
71559;BME280;59382;43.852;25.952;2023-05-14T08:28:02;101867.63;;;23.32;29.81
71559;BME280;59382;43.852;25.952;2023-05-14T08:30:27;101864.06;;;23.37;29.31
71559;BME280;59382;43.852;25.952;2023-05-14T08:32:53;101864.94;;;23.47;28.99
71559;BME280;59382;43.852;25.952;2023-05-14T08:35:18;101876.53;;;23.54;28.64
71559;BME280;59382;43.852;25.952;2023-05-14T08:37:44;101872.09;;;23.48;28.81
71559;BME280;59382;43.852;25.952;2023-05-14T08:40:11;101861.53;;;23.25;28.88
71559;BME280;59382;43.852;25.952;2023-05-14T08:42:39;101880.88;;;23.30;28.83
71559;BME280;59382;43.852;25.952;2023-05-14T08:45:10;101883.03;;;23.28;28.85
71559;BME280;59382;43.852;25.952;2023-05-14T08:47:37;101879.19;;;23.29;28.86
71559;BME280;59382;43.852;25.952;2023-05-14T08:50:05;101867.06;;;23.25;29.07
71559;BME280;59382;43.852;25.952;2023-05-14T08:52:32;101872.03;;;23.28;29.07
71559;BME280;59382;43.852;25.952;2023-05-14T08:55:00;101886.94;;;23.37;29.20
71559;BME280;59382;43.852;25.952;2023-05-14T08:57:27;101866.78;;;23.27;29.20
71559;BME280;59382;43.852;25.952;2023-05-14T08:59:54;101870.38;;;23.27;28.96
71559;BME280;59382;43.852;25.952;2023-05-14T09:02:27;101863.34;;;23.09;28.77
71559;BME280;59382;43.852;25.952;2023-05-14T09:04:55;101880.69;;;23.10;29.26
71559;BME280;59382;43.852;25.952;2023-05-14T09:07:22;101866.34;;;23.08;29.20
71559;BME280;59382;43.852;25.952;2023-05-14T09:09:48;101843.44;;;22.97;28.79
71559;BME280;59382;43.852;25.952;2023-05-14T09:12:14;101854.66;;;22.86;28.94
71559;BME280;59382;43.852;25.952;2023-05-14T09:14:40;101843.59;;;22.76;28.63
71559;BME280;59382;43.852;25.952;2023-05-14T09:17:06;101836.31;;;22.60;29.01
71559;BME280;59382;43.852;25.952;2023-05-14T09:19:32;101842.91;;;22.59;29.23
71559;BME280;59382;43.852;25.952;2023-05-14T09:21:58;101841.78;;;22.55;29.12
71559;BME280;59382;43.852;25.952;2023-05-14T09:24:25;101810.19;;;22.31;29.17
71559;BME280;59382;43.852;25.952;2023-05-14T09:26:57;101832.50;;;22.34;29.09
71559;BME280;59382;43.852;25.952;2023-05-14T09:29:24;101833.88;;;22.32;29.45
71559;BME280;59382;43.852;25.952;2023-05-14T09:31:50;101854.56;;;22.39;29.58
71559;BME280;59382;43.852;25.952;2023-05-14T09:34:42;101859.81;;;22.46;29.29
71559;BME280;59382;43.852;25.952;2023-05-14T09:37:08;101856.63;;;22.54;29.10
71559;BME280;59382;43.852;25.952;2023-05-14T09:39:35;101860.50;;;22.58;28.80
71559;BME280;59382;43.852;25.952;2023-05-14T09:42:01;101845.06;;;22.52;28.73
71559;BME280;59382;43.852;25.952;2023-05-14T09:44:27;101859.16;;;22.60;28.33
71559;BME280;59382;43.852;25.952;2023-05-14T09:46:53;101851.16;;;22.59;28.60
71559;BME280;59382;43.852;25.952;2023-05-14T09:49:18;101851.69;;;22.56;28.67
71559;BME280;59382;43.852;25.952;2023-05-14T09:51:44;101864.88;;;22.54;28.57
71559;BME280;59382;43.852;25.952;2023-05-14T09:54:10;101866.53;;;22.55;28.71
71559;BME280;59382;43.852;25.952;2023-05-14T09:56:36;101856.06;;;22.52;28.73
71559;BME280;59382;43.852;25.952;2023-05-14T09:59:02;101867.06;;;22.52;28.53
71559;BME280;59382;43.852;25.952;2023-05-14T10:01:29;101850.44;;;22.42;28.17
71559;BME280;59382;43.852;25.952;2023-05-14T10:03:55;101831.25;;;22.20;28.18
71559;BME280;59382;43.852;25.952;2023-05-14T10:06:24;101852.28;;;22.31;28.11
71559;BME280;59382;43.852;25.952;2023-05-14T10:08:55;101850.38;;;22.37;28.19
71559;BME280;59382;43.852;25.952;2023-05-14T10:11:24;101841.03;;;22.33;28.24
71559;BME280;59382;43.852;25.952;2023-05-14T10:14:00;101851.50;;;22.36;27.94
71559;BME280;59382;43.852;25.952;2023-05-14T10:16:30;101858.72;;;22.47;27.83
71559;BME280;59382;43.852;25.952;2023-05-14T10:19:06;101851.56;;;22.46;27.64
71559;BME280;59382;43.852;25.952;2023-05-14T10:21:34;101854.41;;;22.51;27.57
71559;BME280;59382;43.852;25.952;2023-05-14T10:24:05;101835.59;;;22.43;27.70
71559;BME280;59382;43.852;25.952;2023-05-14T10:26:31;101840.03;;;22.49;27.80
71559;BME280;59382;43.852;25.952;2023-05-14T10:28:58;101826.63;;;22.52;27.96
71559;BME280;59382;43.852;25.952;2023-05-14T10:34:43;101828.56;;;22.52;28.03
71559;BME280;59382;43.852;25.952;2023-05-14T10:37:10;101816.91;;;22.45;27.66
71559;BME280;59382;43.852;25.952;2023-05-14T10:42:10;101806.38;;;22.37;28.09
71559;BME280;59382;43.852;25.952;2023-05-14T10:44:41;101801.16;;;22.35;28.17
71559;BME280;59382;43.852;25.952;2023-05-14T10:47:10;101792.13;;;22.40;28.04
71559;BME280;59382;43.852;25.952;2023-05-14T10:49:36;101799.31;;;22.46;28.11
71559;BME280;59382;43.852;25.952;2023-05-14T10:52:01;101771.16;;;22.34;28.19
71559;BME280;59382;43.852;25.952;2023-05-14T10:54:27;101788.41;;;22.56;28.30
71559;BME280;59382;43.852;25.952;2023-05-14T10:56:53;101787.94;;;22.64;28.27
71559;BME280;59382;43.852;25.952;2023-05-14T10:59:18;101760.41;;;22.64;28.20
71559;BME280;59382;43.852;25.952;2023-05-14T11:01:44;101765.38;;;22.67;27.94
71559;BME280;59382;43.852;25.952;2023-05-14T11:04:17;101744.47;;;22.66;27.83
71559;BME280;59382;43.852;25.952;2023-05-14T11:06:45;101738.41;;;22.64;27.91
71559;BME280;59382;43.852;25.952;2023-05-14T11:09:16;101755.22;;;22.67;27.96
71559;BME280;59382;43.852;25.952;2023-05-14T11:11:42;101734.22;;;22.56;28.29
71559;BME280;59382;43.852;25.952;2023-05-14T11:14:08;101732.91;;;22.64;28.32
71559;BME280;59382;43.852;25.952;2023-05-14T11:16:34;101730.09;;;22.59;28.42
71559;BME280;59382;43.852;25.952;2023-05-14T11:19:02;101728.50;;;22.63;28.68
71559;BME280;59382;43.852;25.952;2023-05-14T11:21:29;101719.34;;;22.52;28.64
71559;BME280;59382;43.852;25.952;2023-05-14T11:23:59;101734.50;;;22.55;28.73
71559;BME280;59382;43.852;25.952;2023-05-14T11:26:25;101740.03;;;22.65;28.84
71559;BME280;59382;43.852;25.952;2023-05-14T11:28:51;101741.72;;;22.66;28.81
71559;BME280;59382;43.852;25.952;2023-05-14T11:31:16;101727.44;;;22.74;28.85
71559;BME280;59382;43.852;25.952;2023-05-14T11:33:43;101724.69;;;22.74;28.82
71559;BME280;59382;43.852;25.952;2023-05-14T11:36:11;101732.44;;;22.87;28.80
71559;BME280;59382;43.852;25.952;2023-05-14T11:38:47;101730.53;;;22.82;28.83
71559;BME280;59382;43.852;25.952;2023-05-14T11:41:13;101750.66;;;22.88;29.03
71559;BME280;59382;43.852;25.952;2023-05-14T11:43:39;101735.81;;;22.94;29.23
71559;BME280;59382;43.852;25.952;2023-05-14T11:46:05;101742.47;;;23.03;28.92
71559;BME280;59382;43.852;25.952;2023-05-14T11:48:31;101731.44;;;23.03;28.90
71559;BME280;59382;43.852;25.952;2023-05-14T11:50:57;101744.06;;;22.94;29.02
71559;BME280;59382;43.852;25.952;2023-05-14T11:53:28;101738.03;;;22.97;29.07
71559;BME280;59382;43.852;25.952;2023-05-14T11:55:54;101712.38;;;22.91;29.13
71559;BME280;59382;43.852;25.952;2023-05-14T11:58:22;101705.00;;;22.97;28.85
71559;BME280;59382;43.852;25.952;2023-05-14T12:00:52;101728.69;;;23.08;29.06
71559;BME280;59382;43.852;25.952;2023-05-14T12:03:18;101716.59;;;23.14;29.31
71559;BME280;59382;43.852;25.952;2023-05-14T12:06:01;101704.84;;;23.24;29.23
71559;BME280;59382;43.852;25.952;2023-05-14T12:08:32;101689.66;;;23.21;29.38
71559;BME280;59382;43.852;25.952;2023-05-14T12:11:02;101694.38;;;23.31;29.28
71559;BME280;59382;43.852;25.952;2023-05-14T12:13:31;101699.66;;;23.37;29.10
71559;BME280;59382;43.852;25.952;2023-05-14T12:15:59;101693.56;;;23.35;29.27
71559;BME280;59382;43.852;25.952;2023-05-14T12:18:28;101685.31;;;23.45;29.35
71559;BME280;59382;43.852;25.952;2023-05-14T12:20:53;101685.91;;;23.52;29.34
71559;BME280;59382;43.852;25.952;2023-05-14T12:23:29;101675.97;;;23.56;29.23
71559;BME280;59382;43.852;25.952;2023-05-14T12:26:03;101673.25;;;23.61;29.36
71559;BME280;59382;43.852;25.952;2023-05-14T12:28:30;101641.81;;;23.52;29.42
71559;BME280;59382;43.852;25.952;2023-05-14T12:30:57;101636.00;;;23.44;29.20
71559;BME280;59382;43.852;25.952;2023-05-14T12:33:23;101642.34;;;23.44;29.21
71559;BME280;59382;43.852;25.952;2023-05-14T12:35:51;101645.66;;;23.46;29.44
71559;BME280;59382;43.852;25.952;2023-05-14T12:38:18;101647.84;;;23.39;29.30
71559;BME280;59382;43.852;25.952;2023-05-14T12:40:44;101644.56;;;23.37;29.12
71559;BME280;59382;43.852;25.952;2023-05-14T12:43:09;101650.63;;;23.34;29.35
71559;BME280;59382;43.852;25.952;2023-05-14T12:45:35;101628.56;;;23.24;29.62
71559;BME280;59382;43.852;25.952;2023-05-14T12:48:01;101620.56;;;23.23;29.79